createdAt,value
2024-02-13T00:01:42.870Z,99133.06
2024-02-13T00:04:11.348Z,99133.13
2024-02-13T00:06:38.515Z,99131.47
2024-02-13T00:09:07.927Z,99131.34
2024-02-13T00:11:34.474Z,99133.16
2024-02-13T00:14:01.240Z,99132.34
2024-02-13T00:16:27.827Z,99131.47
2024-02-13T00:18:54.361Z,99133.06
2024-02-13T00:21:21.291Z,99139.16
2024-02-13T00:23:49.096Z,99146.09
2024-02-13T00:26:15.933Z,99146.81
2024-02-13T00:28:42.571Z,99153.63
2024-02-13T00:31:09.954Z,99155.28
2024-02-13T00:33:36.629Z,99167.25
2024-02-13T00:36:04.117Z,99168.06
2024-02-13T00:38:31.622Z,99163.63
2024-02-13T00:40:58.159Z,99162.66
2024-02-13T00:43:24.737Z,99161.75
2024-02-13T00:45:51.344Z,99165.06
2024-02-13T00:48:19.286Z,99167.53
2024-02-13T00:50:48.162Z,99172.72
2024-02-13T00:53:17.141Z,99175.31
2024-02-13T00:55:44.575Z,99178.66
2024-02-13T00:58:11.412Z,99178.69
2024-02-13T01:00:41.059Z,99178.69
2024-02-13T01:03:08.109Z,99181.28
2024-02-13T01:05:35.204Z,99180.28
2024-02-13T01:08:02.207Z,99184.69
2024-02-13T01:10:28.702Z,99182.81
2024-02-13T01:12:55.738Z,99187.81
2024-02-13T01:15:23.954Z,99189.56
2024-02-13T01:17:50.568Z,99186.94
2024-02-13T01:20:19.743Z,99183.47
2024-02-13T01:22:46.400Z,99189.19
2024-02-13T01:25:15.289Z,99196.84
2024-02-13T01:27:42.100Z,99195.22
2024-02-13T01:30:11.589Z,99196.34
2024-02-13T01:32:41.840Z,99198.59
2024-02-13T01:35:10.084Z,99198.75
2024-02-13T01:37:36.680Z,99205.75
2024-02-13T01:40:06.876Z,99203.31
2024-02-13T01:42:38.831Z,99203.31
2024-02-13T01:45:11.151Z,99205.06
2024-02-13T01:47:38.305Z,99203.53
2024-02-13T01:50:07.880Z,99211.38
2024-02-13T01:52:36.672Z,99215.72
2024-02-13T01:55:08.790Z,99214.81
2024-02-13T01:57:37.719Z,99221.63
2024-02-13T02:00:10.822Z,99234.50
2024-02-13T02:02:37.730Z,99237.09
2024-02-13T02:05:08.035Z,99235.38
2024-02-13T02:07:34.766Z,99236.28
2024-02-13T02:10:01.318Z,99238.00
2024-02-13T02:12:27.981Z,99239.78
2024-02-13T02:14:54.931Z,99238.00
2024-02-13T02:17:21.616Z,99235.38
2024-02-13T02:19:48.113Z,99237.97
2024-02-13T02:22:14.574Z,99244.88
2024-02-13T02:24:41.079Z,99247.28
2024-02-13T02:27:07.666Z,99248.72
2024-02-13T02:29:34.696Z,99249.50
2024-02-13T02:32:01.433Z,99246.94
2024-02-13T02:34:28.014Z,99253.63
2024-02-13T02:36:54.539Z,99256.91
2024-02-13T02:39:21.154Z,99261.91
2024-02-13T02:41:47.881Z,99257.47
2024-02-13T02:44:14.645Z,99265.38
2024-02-13T02:46:41.285Z,99259.22
2024-02-13T02:49:08.196Z,99264.41
2024-02-13T02:51:34.701Z,99266.03
2024-02-13T02:54:01.331Z,99266.94
2024-02-13T02:56:27.935Z,99258.41
2024-02-13T02:58:56.920Z,99275.66
2024-02-13T03:01:24.041Z,99269.41
2024-02-13T03:03:53.535Z,99278.81
2024-02-13T03:06:20.963Z,99285.56
2024-02-13T03:08:47.796Z,99283.06
2024-02-13T03:11:14.546Z,99283.00
2024-02-13T03:13:41.102Z,99293.31
2024-02-13T03:16:07.696Z,99293.31
2024-02-13T03:18:35.387Z,99298.47
2024-02-13T03:21:05.787Z,99301.13
2024-02-13T03:23:32.853Z,99306.16
2024-02-13T03:25:59.418Z,99310.09
2024-02-13T03:28:26.539Z,99316.13
2024-02-13T03:30:55.334Z,99320.25
2024-02-13T03:33:22.280Z,99333.28
2024-02-13T03:35:50.125Z,99326.44
2024-02-13T03:38:16.717Z,99339.13
2024-02-13T03:40:43.195Z,99340.81
2024-02-13T03:43:11.095Z,99348.53
2024-02-13T03:45:37.787Z,99346.78
2024-02-13T03:48:05.451Z,99344.31
2024-02-13T03:50:32.076Z,99342.63
2024-02-13T03:52:58.701Z,99352.13
2024-02-13T03:55:25.344Z,99347.81
2024-02-13T03:57:52.601Z,99355.50
2024-02-13T04:00:19.465Z,99358.06
2024-02-13T04:02:46.117Z,99364.13
2024-02-13T04:05:14.044Z,99363.16
2024-02-13T04:07:40.583Z,99372.56
2024-02-13T04:10:08.115Z,99383.88
2024-02-13T04:12:34.734Z,99383.91
2024-02-13T04:15:01.403Z,99382.75
2024-02-13T04:17:27.954Z,99384.50
2024-02-13T04:19:54.529Z,99390.47
2024-02-13T04:22:21.299Z,99399.88
2024-02-13T04:24:47.873Z,99401.59
2024-02-13T04:27:14.619Z,99400.56
2024-02-13T04:29:44.484Z,99398.50
2024-02-13T04:32:11.100Z,99394.94
2024-02-13T04:34:37.984Z,99398.38
2024-02-13T04:37:04.608Z,99397.41
2024-02-13T04:39:31.922Z,99391.53
2024-02-13T04:41:58.412Z,99406.13
2024-02-13T04:44:24.978Z,99404.16
2024-02-13T04:46:52.162Z,99409.31
2024-02-13T04:49:18.759Z,99419.91
2024-02-13T04:51:45.243Z,99419.00
2024-02-13T04:54:11.836Z,99420.69
2024-02-13T04:56:38.505Z,99413.88
2024-02-13T04:59:05.847Z,99419.72
2024-02-13T05:01:32.388Z,99423.19
2024-02-13T05:04:17.244Z,99422.13
2024-02-13T05:07:03.191Z,99438.22
2024-02-13T05:09:29.764Z,99431.19
2024-02-13T05:11:56.383Z,99448.38
2024-02-13T05:14:23.195Z,99444.28
2024-02-13T05:16:49.828Z,99437.47
2024-02-13T05:19:16.922Z,99453.81
2024-02-13T05:21:43.576Z,99455.56
2024-02-13T05:24:10.820Z,99462.56
2024-02-13T05:26:37.627Z,99461.53
2024-02-13T05:29:05.915Z,99469.22
2024-02-13T05:31:32.740Z,99474.28
2024-02-13T05:33:59.399Z,99479.31
2024-02-13T05:36:27.513Z,99490.44
2024-02-13T05:38:54.472Z,99482.63
2024-02-13T05:41:21.260Z,99487.91
2024-02-13T05:43:48.160Z,99494.00
2024-02-13T05:46:15.096Z,99495.75
2024-02-13T05:48:44.765Z,99502.69
2024-02-13T05:51:13.098Z,99499.06
2024-02-13T05:53:43.853Z,99496.50
2024-02-13T05:56:14.527Z,99505.94
2024-02-13T05:58:46.945Z,99521.03
2024-02-13T06:01:14.779Z,99518.16
2024-02-13T06:03:41.582Z,99521.47
2024-02-13T06:06:08.396Z,99533.69
2024-02-13T06:08:36.165Z,99534.31
2024-02-13T06:11:02.852Z,99536.66
2024-02-13T06:13:30.371Z,99547.84
2024-02-13T06:15:56.841Z,99547.09
2024-02-13T06:18:24.484Z,99554.94
2024-02-13T06:20:51.825Z,99551.50
2024-02-13T06:23:18.793Z,99553.41
2024-02-13T06:25:45.535Z,99558.44
2024-02-13T06:28:12.243Z,99554.09
2024-02-13T06:30:40.646Z,99557.59
2024-02-13T06:33:08.035Z,99564.19
2024-02-13T06:35:34.925Z,99579.59
2024-02-13T06:38:01.586Z,99582.53
2024-02-13T06:40:28.121Z,99584.06
2024-02-13T06:42:54.688Z,99589.88
2024-02-13T06:45:21.313Z,99592.47
2024-02-13T06:47:48.216Z,99591.94
2024-02-13T06:50:15.167Z,99606.38
2024-02-13T06:52:42.358Z,99605.69
2024-02-13T06:55:09.579Z,99603.09
2024-02-13T06:57:37.076Z,99609.84
2024-02-13T07:00:09.427Z,99607.53
2024-02-13T07:02:36.812Z,99605.09
2024-02-13T07:05:05.549Z,99602.31
2024-02-13T07:07:41.712Z,99608.66
2024-02-13T07:10:13.843Z,99612.03
2024-02-13T07:12:40.606Z,99610.44
2024-02-13T07:15:07.853Z,99611.31
2024-02-13T07:17:45.140Z,99616.84
2024-02-13T07:20:19.806Z,99614.34
2024-02-13T07:22:47.271Z,99613.59
2024-02-13T07:25:16.266Z,99613.75
2024-02-13T07:27:43.150Z,99619.88
2024-02-13T07:30:11.886Z,99626.28
2024-02-13T07:32:40.580Z,99618.56
2024-02-13T07:35:08.503Z,99620.69
2024-02-13T07:37:35.593Z,99636.78
2024-02-13T07:40:03.685Z,99625.66
2024-02-13T07:42:30.731Z,99626.78
2024-02-13T07:44:57.941Z,99635.22
2024-02-13T07:47:26.886Z,99639.56
2024-02-13T07:49:55.357Z,99643.09
2024-02-13T07:52:22.922Z,99639.78
2024-02-13T07:54:49.622Z,99638.25
2024-02-13T07:57:17.471Z,99637.69
2024-02-13T07:59:45.416Z,99637.03
2024-02-13T08:02:14.004Z,99625.84
2024-02-13T08:04:41.193Z,99640.63
2024-02-13T08:07:09.294Z,99636.66
2024-02-13T08:09:35.955Z,99650.13
2024-02-13T08:12:05.507Z,99642.13
2024-02-13T08:14:34.113Z,99662.06
2024-02-13T08:17:00.789Z,99657.53
2024-02-13T08:19:30.300Z,99651.16
2024-02-13T08:21:57.187Z,99659.19
2024-02-13T08:24:24.026Z,99659.34
2024-02-13T08:26:50.732Z,99661.44
2024-02-13T08:29:17.573Z,99659.16
2024-02-13T08:31:44.246Z,99661.81
2024-02-13T08:34:11.249Z,99667.44
2024-02-13T08:36:41.129Z,99674.59
2024-02-13T08:39:07.907Z,99683.44
2024-02-13T08:41:34.784Z,99685.06
2024-02-13T08:44:01.462Z,99686.25
2024-02-13T08:46:28.178Z,99687.16
2024-02-13T08:48:55.024Z,99691.75
2024-02-13T08:51:26.397Z,99702.91
2024-02-13T08:53:53.336Z,99700.41
2024-02-13T08:56:21.056Z,99696.91
2024-02-13T08:58:48.238Z,99694.47
2024-02-13T09:01:20.630Z,99700.69
2024-02-13T09:03:48.269Z,99703.31
2024-02-13T09:06:17.018Z,99703.44
2024-02-13T09:08:45.262Z,99709.38
2024-02-13T09:11:15.210Z,99710.47
2024-02-13T09:13:42.366Z,99719.81
2024-02-13T09:16:13.401Z,99725.72
2024-02-13T09:18:41.734Z,99722.25
2024-02-13T09:21:08.979Z,99720.78
2024-02-13T09:23:36.820Z,99731.91
2024-02-13T09:26:03.539Z,99734.38
2024-02-13T09:28:30.235Z,99738.06
2024-02-13T09:30:56.789Z,99736.41
2024-02-13T09:33:24.514Z,99744.91
2024-02-13T09:35:51.897Z,99751.91
2024-02-13T09:38:19.366Z,99749.19
2024-02-13T09:40:49.909Z,99746.00
2024-02-13T09:43:17.178Z,99745.34
2024-02-13T09:45:45.878Z,99752.44
2024-02-13T09:48:24.867Z,99755.09
2024-02-13T09:50:53.624Z,99756.84
2024-02-13T09:53:30.104Z,99766.38
2024-02-13T09:55:58.895Z,99755.47
2024-02-13T09:58:27.053Z,99757.25
2024-02-13T10:00:58.501Z,99754.78
2024-02-13T10:03:28.236Z,99755.09
2024-02-13T10:05:55.044Z,99758.69
2024-02-13T10:08:28.763Z,99753.47
2024-02-13T10:11:03.353Z,99757.19
2024-02-13T10:13:46.353Z,99759.19
2024-02-13T10:16:20.946Z,99758.38
2024-02-13T10:18:55.728Z,99756.72
2024-02-13T10:21:27.686Z,99751.56
2024-02-13T10:24:15.843Z,99755.03
2024-02-13T10:26:44.202Z,99743.81
2024-02-13T10:29:11.415Z,99739.53
2024-02-13T10:31:40.907Z,99744.75
2024-02-13T10:34:10.980Z,99753.34
2024-02-13T10:36:42.607Z,99749.09
2024-02-13T10:39:13.514Z,99763.81
2024-02-13T10:41:41.990Z,99752.72
2024-02-13T10:44:14.692Z,99750.25
2024-02-13T10:46:43.514Z,99763.28
2024-02-13T10:49:34.326Z,99754.47
2024-02-13T10:52:02.330Z,99752.00
2024-02-13T10:54:30.791Z,99756.16
2024-02-13T10:57:00.072Z,99757.25
2024-02-13T10:59:29.707Z,99758.19
2024-02-13T11:02:00.758Z,99764.06
2024-02-13T11:04:28.779Z,99764.72
2024-02-13T11:06:56.144Z,99767.41
2024-02-13T11:09:22.859Z,99773.47
2024-02-13T11:11:49.510Z,99766.72
2024-02-13T11:14:23.146Z,99764.16
2024-02-13T11:17:01.780Z,99776.38
2024-02-13T11:19:45.633Z,99771.22
2024-02-13T11:22:16.563Z,99775.59
2024-02-13T11:24:50.332Z,99772.16
2024-02-13T11:27:26.863Z,99778.19
2024-02-13T11:30:04.009Z,99773.78
2024-02-13T11:32:35.417Z,99783.22
2024-02-13T11:35:06.835Z,99777.28
2024-02-13T11:37:35.732Z,99774.72
2024-02-13T11:40:06.803Z,99770.34
2024-02-13T11:42:36.550Z,99768.69
2024-02-13T11:45:04.824Z,99772.34
2024-02-13T11:47:32.015Z,99782.69
2024-02-13T11:49:59.045Z,99769.81
2024-02-13T11:52:26.333Z,99772.56
2024-02-13T11:54:52.849Z,99765.00
2024-02-13T11:57:20.878Z,99763.97
2024-02-13T12:00:05.475Z,99770.88
2024-02-13T12:02:34.472Z,99770.22
2024-02-13T12:05:01.578Z,99770.00
2024-02-13T12:07:29.102Z,99768.34
2024-02-13T12:09:56.161Z,99760.81
2024-02-13T12:12:22.866Z,99764.28
2024-02-13T12:14:51.450Z,99776.56
2024-02-13T12:17:18.435Z,99772.13
2024-02-13T12:19:45.707Z,99772.25
2024-02-13T12:22:14.824Z,99770.66
2024-02-13T12:24:41.790Z,99774.25
2024-02-13T12:27:11.715Z,99780.25
2024-02-13T12:29:40.564Z,99787.13
2024-02-13T12:32:15.585Z,99767.97
2024-02-13T12:34:42.363Z,99784.31
2024-02-13T12:37:09.787Z,99775.97
2024-02-13T12:39:37.968Z,99785.47
2024-02-13T12:42:12.180Z,99781.31
2024-02-13T12:44:43.456Z,99775.34
2024-02-13T12:47:14.772Z,99782.16
2024-02-13T12:49:44.377Z,99788.16
2024-02-13T12:52:23.849Z,99777.75
2024-02-13T12:54:52.953Z,99780.25
2024-02-13T12:57:20.719Z,99784.75
2024-02-13T12:59:47.284Z,99779.69
2024-02-13T13:02:15.799Z,99783.94
2024-02-13T13:04:42.580Z,99779.81
2024-02-13T13:07:09.653Z,99795.41
2024-02-13T13:09:37.567Z,99792.81
2024-02-13T13:12:07.681Z,99803.75
2024-02-13T13:14:35.882Z,99802.72
2024-02-13T13:17:02.424Z,99813.00
2024-02-13T13:19:30.782Z,99799.28
2024-02-13T13:21:57.594Z,99800.81
2024-02-13T13:24:24.471Z,99804.25
2024-02-13T13:26:51.713Z,99817.22
2024-02-13T13:29:18.892Z,99828.41
2024-02-13T13:31:48.710Z,99839.63
2024-02-13T13:34:21.633Z,99838.53
2024-02-13T13:36:51.187Z,99846.19
2024-02-13T13:39:18.614Z,99856.31
2024-02-13T13:41:45.347Z,99848.53
2024-02-13T13:44:12.333Z,99850.91
2024-02-13T13:46:38.943Z,99854.34
2024-02-13T13:49:05.692Z,99854.47
2024-02-13T13:51:35.024Z,99854.34
2024-02-13T13:54:02.199Z,99848.31
2024-02-13T13:56:28.938Z,99853.72
2024-02-13T13:58:55.551Z,99865.88
2024-02-13T14:01:22.379Z,99863.41
2024-02-13T14:03:49.765Z,99861.69
2024-02-13T14:06:16.561Z,99870.22
2024-02-13T14:08:43.204Z,99866.38
2024-02-13T14:11:10.092Z,99852.22
2024-02-13T14:13:36.774Z,99866.81
2024-02-13T14:16:04.873Z,99858.81
2024-02-13T14:18:32.014Z,99872.78
2024-02-13T14:20:59.170Z,99864.09
2024-02-13T14:23:25.777Z,99869.25
2024-02-13T14:25:52.466Z,99878.81
2024-02-13T14:28:19.660Z,99891.81
2024-02-13T14:30:47.295Z,99883.06
2024-02-13T14:33:14.586Z,99887.22
2024-02-13T14:35:43.686Z,99883.66
2024-02-13T14:38:11.055Z,99893.03
2024-02-13T14:40:40.273Z,99883.41
2024-02-13T14:43:08.042Z,99882.38
2024-02-13T14:45:36.366Z,99898.66
2024-02-13T14:48:04.051Z,99902.94
2024-02-13T14:50:31.406Z,99900.22
2024-02-13T14:53:00.544Z,99907.13
2024-02-13T14:55:27.145Z,99907.13
2024-02-13T14:58:01.135Z,99907.03
2024-02-13T15:00:39.063Z,99915.53
2024-02-13T15:03:06.078Z,99922.44
2024-02-13T15:05:34.045Z,99917.28
2024-02-13T15:08:01.106Z,99918.25
2024-02-13T15:10:30.020Z,99923.44
2024-02-13T15:12:59.063Z,99925.94
2024-02-13T15:15:28.278Z,99935.72
2024-02-13T15:17:55.281Z,99942.63
2024-02-13T15:20:22.419Z,99948.69
2024-02-13T15:22:49.112Z,99946.41
2024-02-13T15:25:16.046Z,99942.81
2024-02-13T15:27:42.797Z,99951.28
2024-02-13T15:30:13.551Z,99951.13
2024-02-13T15:32:42.683Z,99957.94
2024-02-13T15:35:10.985Z,99959.69
2024-02-13T15:37:56.941Z,99962.31
2024-02-13T15:40:42.214Z,99974.97
2024-02-13T15:43:26.988Z,99981.88
2024-02-13T15:46:11.859Z,99977.09
2024-02-13T15:48:38.817Z,99976.06
2024-02-13T15:51:07.072Z,99982.94
2024-02-13T15:53:35.417Z,99985.50
2024-02-13T15:56:04.694Z,99998.25
2024-02-13T15:58:32.837Z,99999.91
2024-02-13T16:01:00.593Z,100005.91
2024-02-13T16:03:27.701Z,100005.66
2024-02-13T16:05:56.247Z,100016.00
2024-02-13T16:08:25.495Z,100016.25
2024-02-13T16:10:52.497Z,100031.69
2024-02-13T16:13:20.127Z,100021.25
2024-02-13T16:15:48.159Z,100021.13
2024-02-13T16:18:15.246Z,100040.03
2024-02-13T16:20:41.985Z,100034.63
2024-02-13T16:23:08.906Z,100043.38
2024-02-13T16:25:36.117Z,100055.25
2024-02-13T16:28:06.392Z,100052.72
2024-02-13T16:30:37.308Z,100061.72
2024-02-13T16:33:05.396Z,100057.44
2024-02-13T16:35:32.313Z,100059.75
2024-02-13T16:37:59.136Z,100065.13
2024-02-13T16:40:27.789Z,100072.09
2024-02-13T16:42:56.853Z,100069.47
2024-02-13T16:45:25.536Z,100074.34
2024-02-13T16:47:53.831Z,100073.44
2024-02-13T16:50:20.934Z,100075.84
2024-02-13T16:52:47.809Z,100083.66
2024-02-13T16:55:15.924Z,100092.06
2024-02-13T16:57:42.926Z,100092.91
2024-02-13T17:00:11.897Z,100093.47
2024-02-13T17:02:40.274Z,100101.34
2024-02-13T17:05:13.527Z,100104.53
2024-02-13T17:07:44.523Z,100106.81
2024-02-13T17:10:16.400Z,100120.56
2024-02-13T17:12:43.269Z,100117.63
2024-02-13T17:15:13.922Z,100121.69
2024-02-13T17:17:42.217Z,100134.38
2024-02-13T17:20:13.152Z,100130.13
2024-02-13T17:22:41.687Z,100128.28
2024-02-13T17:25:12.643Z,100141.78
2024-02-13T17:27:42.152Z,100138.47
2024-02-13T17:30:12.910Z,100141.88
2024-02-13T17:32:41.039Z,100140.84
2024-02-13T17:35:08.074Z,100142.13
2024-02-13T17:37:34.703Z,100140.78
2024-02-13T17:40:06.369Z,100141.66
2024-02-13T17:42:35.799Z,100140.66
2024-02-13T17:45:05.873Z,100148.19
2024-02-13T17:47:32.827Z,100152.16
2024-02-13T17:49:59.565Z,100142.03
2024-02-13T17:52:26.853Z,100148.81
2024-02-13T17:54:53.374Z,100148.00
2024-02-13T17:57:19.874Z,100145.41
2024-02-13T17:59:46.498Z,100150.69
2024-02-13T18:02:13.079Z,100153.97
2024-02-13T18:04:39.681Z,100153.28
2024-02-13T18:07:06.414Z,100160.47
2024-02-13T18:09:33.371Z,100162.06
2024-02-13T18:12:05.961Z,100161.31
2024-02-13T18:14:32.996Z,100156.22
2024-02-13T18:16:59.556Z,100160.63
2024-02-13T18:19:26.249Z,100167.53
2024-02-13T18:21:54.025Z,100169.50
2024-02-13T18:24:20.602Z,100163.44
2024-02-13T18:26:47.520Z,100174.66
2024-02-13T18:29:14.357Z,100169.50
2024-02-13T18:31:41.002Z,100174.75
2024-02-13T18:34:10.036Z,100181.38
2024-02-13T18:36:44.303Z,100191.88
2024-02-13T18:39:12.873Z,100187.81
2024-02-13T18:41:39.522Z,100192.88
2024-02-13T18:44:06.091Z,100190.41
2024-02-13T18:46:32.926Z,100193.06
2024-02-13T18:48:59.598Z,100197.22
2024-02-13T18:51:26.317Z,100197.19
2024-02-13T18:53:53.013Z,100206.28
2024-02-13T18:56:19.658Z,100213.06
2024-02-13T18:58:46.518Z,100213.78
2024-02-13T19:01:13.185Z,100215.22
2024-02-13T19:03:39.867Z,100220.56
2024-02-13T19:06:07.098Z,100220.69
2024-02-13T19:08:36.243Z,100228.34
2024-02-13T19:11:03.641Z,100228.28
2024-02-13T19:13:30.253Z,100232.41
2024-02-13T19:15:56.784Z,100228.69
2024-02-13T19:18:24.560Z,100242.75
2024-02-13T19:20:55.706Z,100240.41
2024-02-13T19:23:27.783Z,100241.34
2024-02-13T19:25:54.848Z,100248.09
2024-02-13T19:28:22.122Z,100253.41
2024-02-13T19:30:54.859Z,100256.84
2024-02-13T19:33:22.084Z,100260.91
2024-02-13T19:35:50.067Z,100266.09
2024-02-13T19:38:18.268Z,100261.50
2024-02-13T19:40:46.018Z,100267.88
2024-02-13T19:43:13.062Z,100272.41
2024-02-13T19:45:43.870Z,100281.69
2024-02-13T19:48:11.279Z,100281.59
2024-02-13T19:50:40.013Z,100286.13
2024-02-13T19:53:08.713Z,100290.13
2024-02-13T19:55:37.373Z,100291.13
2024-02-13T19:58:04.210Z,100293.91
2024-02-13T20:00:31.281Z,100308.13
2024-02-13T20:02:58.071Z,100303.03
2024-02-13T20:05:25.467Z,100307.19
2024-02-13T20:07:52.161Z,100315.69
2024-02-13T20:10:21.207Z,100312.91
2024-02-13T20:12:47.822Z,100321.25
2024-02-13T20:15:14.623Z,100325.41
2024-02-13T20:17:43.704Z,100318.16
2024-02-13T20:20:15.703Z,100324.66
2024-02-13T20:22:46.938Z,100329.47
2024-02-13T20:25:16.776Z,100332.84
2024-02-13T20:27:46.508Z,100334.69
2024-02-13T20:30:15.488Z,100334.34
2024-02-13T20:32:46.436Z,100338.22
2024-02-13T20:35:13.876Z,100340.66
2024-02-13T20:37:40.512Z,100341.72
2024-02-13T20:40:12.860Z,100328.88
2024-02-13T20:42:41.447Z,100332.41
2024-02-13T20:45:21.134Z,100342.56
2024-02-13T20:47:50.933Z,100336.25
2024-02-13T20:50:17.886Z,100338.00
2024-02-13T20:52:44.768Z,100340.13
2024-02-13T20:55:14.607Z,100335.13
2024-02-13T20:57:43.432Z,100334.19
2024-02-13T21:00:14.448Z,100327.22
2024-02-13T21:02:41.912Z,100341.50
2024-02-13T21:05:09.434Z,100340.56
2024-02-13T21:07:36.161Z,100353.63
2024-02-13T21:10:04.476Z,100351.59
2024-02-13T21:12:32.068Z,100354.63
2024-02-13T21:14:59.409Z,100349.13
2024-02-13T21:17:26.116Z,100354.34
2024-02-13T21:19:57.320Z,100348.31
2024-02-13T21:22:42.640Z,100351.53
2024-02-13T21:25:09.600Z,100350.66
2024-02-13T21:27:36.334Z,100345.84
2024-02-13T21:30:03.316Z,100347.38
2024-02-13T21:32:30.724Z,100344.50
2024-02-13T21:34:57.594Z,100342.88
2024-02-13T21:37:24.200Z,100358.06
2024-02-13T21:39:51.219Z,100355.94
2024-02-13T21:42:17.827Z,100356.88
2024-02-13T21:44:44.363Z,100367.47
2024-02-13T21:47:11.156Z,100374.38
2024-02-13T21:49:37.816Z,100370.94
2024-02-13T21:52:04.717Z,100375.16
2024-02-13T21:54:31.184Z,100374.81
2024-02-13T21:56:57.796Z,100379.88
2024-02-13T21:59:24.758Z,100374.88
2024-02-13T22:01:51.453Z,100380.16
2024-02-13T22:04:18.337Z,100386.19
2024-02-13T22:06:46.153Z,100385.97
2024-02-13T22:09:13.548Z,100382.97
2024-02-13T22:11:41.574Z,100394.28
2024-02-13T22:14:08.994Z,100389.91
2024-02-13T22:16:35.505Z,100402.78
2024-02-13T22:19:04.285Z,100398.84
2024-02-13T22:21:31.764Z,100390.28
2024-02-13T22:24:00.051Z,100404.81
2024-02-13T22:26:26.969Z,100405.53
2024-02-13T22:28:53.497Z,100398.31
2024-02-13T22:31:20.912Z,100402.78
2024-02-13T22:33:48.726Z,100402.63
2024-02-13T22:36:24.198Z,100413.19
2024-02-13T22:38:51.798Z,100411.44
2024-02-13T22:41:18.396Z,100413.38
2024-02-13T22:43:45.363Z,100417.75
2024-02-13T22:46:13.752Z,100426.47
2024-02-13T22:48:41.347Z,100433.31
2024-02-13T22:51:08.263Z,100433.06
2024-02-13T22:53:34.941Z,100438.28
2024-02-13T22:56:03.316Z,100442.75
2024-02-13T22:58:29.953Z,100434.44
2024-02-13T23:00:59.805Z,100430.72
2024-02-13T23:03:26.748Z,100432.44
2024-02-13T23:05:58.874Z,100433.03
2024-02-13T23:08:28.441Z,100436.72
2024-02-13T23:10:58.948Z,100437.69
2024-02-13T23:13:30.937Z,100436.97
2024-02-13T23:16:07.666Z,100435.19
2024-02-13T23:18:35.755Z,100431.75
2024-02-13T23:21:03.644Z,100435.91
2024-02-13T23:23:30.673Z,100429.63
2024-02-13T23:25:57.228Z,100431.88
2024-02-13T23:28:24.830Z,100440.38
2024-02-13T23:30:51.553Z,100437.56
2024-02-13T23:33:18.391Z,100442.25
2024-02-13T23:35:46.649Z,100449.34
2024-02-13T23:38:13.264Z,100436.44
2024-02-13T23:40:39.876Z,100443.00
2024-02-13T23:43:07.210Z,100444.22
2024-02-13T23:45:33.942Z,100446.22
2024-02-13T23:48:01.310Z,100449.22
2024-02-13T23:50:28.477Z,100449.50
2024-02-13T23:52:55.106Z,100450.28
2024-02-13T23:55:22.109Z,100457.91
2024-02-13T23:57:48.658Z,100455.84
